Time;durP1;ratioP1;P1;durP2;ratioP2;P2;SDS_P1;SDS_P2;PMS_P1;PMS_P2;Temp;Humidity;BMP_temperature;BMP_pressure;BME280_temperature;BME280_humidity;BME280_pressure;Samples;Min_cycle;Max_cycle;Signal;HPM_P1;HPM_P2
2023/02/08 00:00:33;;;;;;;;;;;;;;;;;;4984359;28;20364;-74
2023/02/08 00:02:59;;;;;;;;;;;;;;;;;;4982366;28;20468;-75
2023/02/08 00:05:25;;;;;;;;;;;;;;;;;;4980849;28;19917;-75
2023/02/08 00:07:50;;;;;;;;;;;;;;;;;;4984500;28;19925;-74
2023/02/08 00:10:16;;;;;;;;;;;;;;;;;;4985663;28;20435;-75
2023/02/08 00:12:42;;;;;;;;;;;;;;;;;;4983695;28;19928;-74
2023/02/08 00:15:08;;;;;;;;;;;;;;;;;;4984864;28;19929;-74
2023/02/08 00:17:34;;;;;;;;;;;;;;;;;;4971200;28;19921;-74
2023/02/08 00:20:00;;;;;;;;;;;;;;;;;;4968126;28;19953;-75
2023/02/08 00:22:26;;;;;;;;;;;;;;;;;;4980906;28;20007;-75
2023/02/08 00:24:52;;;;;;;;;;;;;;;;;;4981539;28;19925;-75
2023/02/08 00:27:18;;;;;;;;;;;;;;;;;;4961612;28;19921;-75
2023/02/08 00:29:44;;;;;;;;;;;;;;;;;;4979658;28;19921;-75
2023/02/08 00:32:10;;;;;;;;;;;;;;;;;;4979877;28;19948;-74
2023/02/08 00:34:35;;;;;;;;;;;;;;;;;;4982910;28;21172;-75
2023/02/08 00:37:01;;;;;;;;;;;;;;;;;;4977592;28;19933;-75
2023/02/08 00:39:27;;;;;;;;;;;;;;;;;;4979180;28;20479;-75
2023/02/08 00:41:53;;;;;;;;;;;;;;;;;;4975510;28;19926;-75
2023/02/08 00:44:19;;;;;;;;;;;;;;;;;;4963656;28;20300;-74
2023/02/08 00:46:45;;;;;;;;;;;;;;;;;;4965552;28;20323;-75
2023/02/08 00:49:11;;;;;;;;;;;;;;;;;;4977905;28;19917;-75
2023/02/08 00:51:37;;;;;;;;;;;;;;;;;;4978545;28;20170;-75
2023/02/08 00:54:03;;;;;;;;;;;;;;;;;;4961131;28;19929;-75
2023/02/08 00:56:28;;;;;;;;;;;;;;;;;;4982563;28;20276;-75
2023/02/08 00:58:54;;;;;;;;;;;;;;;;;;4980529;28;20663;-75
2023/02/08 01:01:20;;;;;;;;;;;;;;;;;;4955097;28;19967;-75
2023/02/08 01:03:47;;;;;;;;;;;;;;;;;;4969502;28;19998;-75
2023/02/08 01:06:13;;;;;;;;;;;;;;;;;;4980551;28;19974;-75
2023/02/08 01:08:39;;;;;;;;;;;;;;;;;;4980040;28;19921;-75
2023/02/08 01:11:05;;;;;;;;;;;;;;;;;;4982127;28;19955;-75
2023/02/08 01:13:31;;;;;;;;;;;;;;;;;;4972232;28;21669;-75
2023/02/08 01:15:57;;;;;;;;;;;;;;;;;;4979683;28;19921;-74
2023/02/08 01:18:23;;;;;;;;;;;;;;;;;;4981592;28;19924;-75
2023/02/08 01:20:49;;;;;;;;;;;;;;;;;;4972676;28;22153;-75
2023/02/08 01:23:15;;;;;;;;;;;;;;;;;;4976653;28;19956;-75
2023/02/08 01:25:41;;;;;;;;;;;;;;;;;;4982091;28;19986;-75
2023/02/08 01:28:07;;;;;;;;;;;;;;;;;;4979760;28;19924;-74
2023/02/08 01:30:33;;;;;;;;;;;;;;;;;;4980970;28;19921;-75
2023/02/08 01:32:59;;;;;;;;;;;;;;;;;;4976463;28;19921;-75
2023/02/08 01:35:24;;;;;;;;;;;;;;;;;;4980189;28;20327;-75
2023/02/08 01:37:50;;;;;;;;;;;;;;;;;;4980616;28;19976;-75
2023/02/08 01:40:16;;;;;;;;;;;;;;;;;;4978426;28;19925;-75
2023/02/08 01:42:42;;;;;;;;;;;;;;;;;;4978923;28;19925;-75
2023/02/08 01:45:08;;;;;;;;;;;;;;;;;;4978526;28;20537;-74
2023/02/08 01:47:34;;;;;;;;;;;;;;;;;;4979508;28;19925;-75
2023/02/08 01:50:00;;;;;;;;;;;;;;;;;;4979277;28;21253;-75
2023/02/08 01:52:26;;;;;;;;;;;;;;;;;;4976631;28;19922;-75
2023/02/08 01:54:52;;;;;;;;;;;;;;;;;;4978480;28;19925;-75
2023/02/08 01:57:18;;;;;;;;;;;;;;;;;;4977390;28;20982;-75
2023/02/08 01:59:44;;;;;;;;;;;;;;;;;;4978707;28;19924;-74
2023/02/08 02:02:09;;;;;;;;;;;;;;;;;;4978204;28;20023;-75
2023/02/08 02:04:35;;;;;;;;;;;;;;;;;;4973718;28;23219;-75
2023/02/08 02:07:01;;;;;;;;;;;;;;;;;;4980671;28;20360;-75
2023/02/08 02:09:27;;;;;;;;;;;;;;;;;;4980155;28;19947;-75
2023/02/08 02:11:53;;;;;;;;;;;;;;;;;;4976858;28;19975;-75
2023/02/08 02:14:19;;;;;;;;;;;;;;;;;;4978263;28;19925;-75
2023/02/08 02:16:45;;;;;;;;;;;;;;;;;;4981698;28;19929;-75
2023/02/08 02:19:11;;;;;;;;;;;;;;;;;;4985342;28;20387;-75
2023/02/08 02:21:37;;;;;;;;;;;;;;;;;;4973311;28;19917;-75
2023/02/08 02:24:03;;;;;;;;;;;;;;;;;;4977207;28;20396;-75
2023/02/08 02:26:28;;;;;;;;;;;;;;;;;;4982956;28;19925;-75
2023/02/08 02:28:54;;;;;;;;;;;;;;;;;;4983939;28;19917;-75
2023/02/08 02:31:20;;;;;;;;;;;;;;;;;;4980308;28;19929;-75
2023/02/08 02:33:46;;;;;;;;;;;;;;;;;;4981966;28;20400;-75
2023/02/08 02:36:12;;;;;;;;;;;;;;;;;;4968783;28;19971;-75
2023/02/08 02:38:38;;;;;;;;;;;;;;;;;;4979329;28;19981;-75
2023/02/08 02:41:04;;;;;;;;;;;;;;;;;;4984271;28;20149;-75
2023/02/08 02:43:42;;;;;;;;;;;;;;;;;;4983879;28;19921;-76
2023/02/08 02:46:08;;;;;;;;;;;;;;;;;;4964122;28;19917;-75
2023/02/08 02:48:34;;;;;;;;;;;;;;;;;;4976252;28;20002;-75
2023/02/08 02:51:00;;;;;;;;;;;;;;;;;;4951686;28;19935;-75
2023/02/08 02:53:26;;;;;;;;;;;;;;;;;;5009126;28;19921;-76
2023/02/08 02:55:52;;;;;;;;;;;;;;;;;;4977763;28;19925;-76
2023/02/08 02:58:18;;;;;;;;;;;;;;;;;;4972991;28;19936;-75
2023/02/08 03:00:44;;;;;;;;;;;;;;;;;;4977379;28;19918;-76
2023/02/08 03:03:10;;;;;;;;;;;;;;;;;;4975273;28;19929;-76
2023/02/08 03:05:36;;;;;;;;;;;;;;;;;;4978916;28;19925;-76
2023/02/08 03:08:02;;;;;;;;;;;;;;;;;;4976708;28;19921;-76
2023/02/08 03:10:28;;;;;;;;;;;;;;;;;;4978703;28;19931;-76
2023/02/08 03:12:55;;;;;;;;;;;;;;;;;;4977490;28;19921;-76
2023/02/08 03:15:21;;;;;;;;;;;;;;;;;;4980928;28;19918;-76
2023/02/08 03:17:46;;;;;;;;;;;;;;;;;;4979815;28;19925;-76
2023/02/08 03:20:12;;;;;;;;;;;;;;;;;;4979984;28;20007;-76
2023/02/08 03:22:38;;;;;;;;;;;;;;;;;;4983767;28;19925;-76
2023/02/08 03:25:04;;;;;;;;;;;;;;;;;;4980569;28;19925;-76
2023/02/08 03:27:30;;;;;;;;;;;;;;;;;;4967115;28;19921;-76
2023/02/08 03:29:56;;;;;;;;;;;;;;;;;;4979952;28;21764;-76
2023/02/08 03:32:22;;;;;;;;;;;;;;;;;;4983224;28;19929;-76
2023/02/08 03:34:48;;;;;;;;;;;;;;;;;;4964017;28;20015;-77
2023/02/08 03:37:14;;;;;;;;;;;;;;;;;;4983056;28;19924;-76
2023/02/08 03:39:40;;;;;;;;;;;;;;;;;;4981914;28;20343;-76
2023/02/08 03:42:05;;;;;;;;;;;;;;;;;;4978196;28;20311;-75
2023/02/08 03:44:31;;;;;;;;;;;;;;;;;;4983808;28;19918;-75
2023/02/08 03:46:57;;;;;;;;;;;;;;;;;;4961756;28;19918;-75
2023/02/08 03:49:23;;;;;;;;;;;;;;;;;;4980675;28;19917;-76
2023/02/08 03:51:49;;;;;;;;;;;;;;;;;;4980694;28;19930;-77
2023/02/08 03:54:15;;;;;;;;;;;;;;;;;;4978953;28;19917;-78
2023/02/08 03:56:41;;;;;;;;;;;;;;;;;;4979928;28;20327;-75
2023/02/08 03:59:07;;;;;;;;;;;;;;;;;;4940502;28;1075155;-75
2023/02/08 04:01:35;;;;;;;;;;;;;;;;;;4979992;28;20388;-75
2023/02/08 04:04:01;;;;;;;;;;;;;;;;;;4980491;28;19918;-77
2023/02/08 04:06:27;;;;;;;;;;;;;;;;;;4979015;28;19932;-76
2023/02/08 04:08:53;;;;;;;;;;;;;;;;;;4961992;28;19925;-76
2023/02/08 04:11:19;;;;;;;;;;;;;;;;;;4980336;28;20711;-75
2023/02/08 04:13:44;;;;;;;;;;;;;;;;;;4971201;28;19933;-76
2023/02/08 04:16:10;;;;;;;;;;;;;;;;;;4957369;28;19925;-75
2023/02/08 04:18:36;;;;;;;;;;;;;;;;;;4972474;28;19963;-75
2023/02/08 04:21:02;;;;;;;;;;;;;;;;;;4976397;28;19943;-75
2023/02/08 04:23:28;;;;;;;;;;;;;;;;;;4979351;28;19924;-75
2023/02/08 04:25:54;;;;;;;;;;;;;;;;;;4979266;28;19918;-75
2023/02/08 04:28:20;;;;;;;;;;;;;;;;;;4975960;28;19920;-75
2023/02/08 04:30:46;;;;;;;;;;;;;;;;;;4976536;28;19925;-75
2023/02/08 04:33:13;;;;;;;;;;;;;;;;;;4982444;28;19917;-75
2023/02/08 04:35:39;;;;;;;;;;;;;;;;;;4982115;28;20279;-75
2023/02/08 04:38:05;;;;;;;;;;;;;;;;;;4981620;28;19917;-75
2023/02/08 04:40:32;;;;;;;;;;;;;;;;;;4977887;28;19925;-75
2023/02/08 04:42:58;;;;;;;;;;;;;;;;;;4980678;28;19979;-75
2023/02/08 04:45:25;;;;;;;;;;;;;;;;;;4979888;28;20891;-76
2023/02/08 04:47:51;;;;;;;;;;;;;;;;;;4983009;28;19929;-75
2023/02/08 04:50:17;;;;;;;;;;;;;;;;;;4968741;28;20354;-75
2023/02/08 04:52:43;;;;;;;;;;;;;;;;;;4984780;28;19944;-75
2023/02/08 04:55:09;;;;;;;;;;;;;;;;;;4985352;28;19925;-75
2023/02/08 04:57:35;;;;;;;;;;;;;;;;;;4983711;28;19921;-75
2023/02/08 05:00:01;;;;;;;;;;;;;;;;;;4982103;28;20457;-76
2023/02/08 05:02:27;;;;;;;;;;;;;;;;;;4978811;28;20749;-76
2023/02/08 05:04:53;;;;;;;;;;;;;;;;;;4975892;28;20014;-77
2023/02/08 05:07:19;;;;;;;;;;;;;;;;;;4976266;28;19922;-76
2023/02/08 05:09:45;;;;;;;;;;;;;;;;;;4981562;28;19928;-76
2023/02/08 05:12:10;;;;;;;;;;;;;;;;;;4977877;28;19917;-76
2023/02/08 05:14:36;;;;;;;;;;;;;;;;;;4973204;28;20235;-77
2023/02/08 05:17:02;;;;;;;;;;;;;;;;;;4972346;28;20863;-77
2023/02/08 05:19:28;;;;;;;;;;;;;;;;;;4976177;28;20431;-76
2023/02/08 05:21:54;;;;;;;;;;;;;;;;;;4961504;28;20291;-77
2023/02/08 05:24:20;;;;;;;;;;;;;;;;;;4961600;28;19952;-77
2023/02/08 05:26:46;;;;;;;;;;;;;;;;;;4973278;28;19933;-77
2023/02/08 05:29:12;;;;;;;;;;;;;;;;;;4965244;28;19925;-77
2023/02/08 05:31:38;;;;;;;;;;;;;;;;;;4976912;28;19972;-77
2023/02/08 05:34:04;;;;;;;;;;;;;;;;;;4968730;28;19926;-77
2023/02/08 05:36:30;;;;;;;;;;;;;;;;;;4976042;28;20376;-77
2023/02/08 05:38:56;;;;;;;;;;;;;;;;;;4980960;28;19917;-77
2023/02/08 05:41:22;;;;;;;;;;;;;;;;;;4979554;28;19917;-77
2023/02/08 05:43:47;;;;;;;;;;;;;;;;;;4984766;28;19948;-77
2023/02/08 05:46:13;;;;;;;;;;;;;;;;;;4980432;28;19929;-77
2023/02/08 05:48:39;;;;;;;;;;;;;;;;;;4984974;28;19992;-77
2023/02/08 05:51:05;;;;;;;;;;;;;;;;;;4982382;28;19921;-77
2023/02/08 05:53:31;;;;;;;;;;;;;;;;;;4984646;28;20003;-77
2023/02/08 05:55:57;;;;;;;;;;;;;;;;;;4982354;28;19921;-77
2023/02/08 05:58:25;;;;;;;;;;;;;;;;;;4998667;23;19921;-83
2023/02/08 06:00:54;;;;;;;;;;;;;;;;;;5002280;28;20580;-83
2023/02/08 06:03:27;;;;;;;;;;;;;;;;;;4984261;28;19982;-82
2023/02/08 06:05:53;;;;;;;;;;;;;;;;;;5005522;28;20235;-83
2023/02/08 06:08:19;;;;;;;;;;;;;;;;;;5014892;28;19971;-85
2023/02/08 06:10:45;;;;;;;;;;;;;;;;;;5014440;28;19987;-84
2023/02/08 06:13:14;;;;;;;;;;;;;;;;;;4980206;28;19959;-83
2023/02/08 06:15:43;;;;;;;;;;;;;;;;;;4984536;28;20433;-83
2023/02/08 06:18:12;;;;;;;;;;;;;;;;;;5012097;28;20027;-83
2023/02/08 06:20:38;;;;;;;;;;;;;;;;;;5008572;28;19983;-83
2023/02/08 06:23:04;;;;;;;;;;;;;;;;;;5009670;28;20279;-83
2023/02/08 06:25:48;;;;;;;;;;;;;;;;;;4998591;28;19925;-83
2023/02/08 06:28:14;;;;;;;;;;;;;;;;;;5006897;28;20393;-82
2023/02/08 06:30:40;;;;;;;;;;;;;;;;;;5005447;28;19948;-82
2023/02/08 06:33:09;;;;;;;;;;;;;;;;;;5007871;28;20050;-82
2023/02/08 06:35:40;;;;;;;;;;;;;;;;;;4999743;28;20414;-82
2023/02/08 06:38:12;;;;;;;;;;;;;;;;;;5003579;28;20118;-83
2023/02/08 06:40:45;;;;;;;;;;;;;;;;;;5000847;28;20019;-82
2023/02/08 06:43:12;;;;;;;;;;;;;;;;;;5021059;28;19920;-83
2023/02/08 06:45:37;;;;;;;;;;;;;;;;;;5019181;28;19917;-84
2023/02/08 06:48:15;;;;;;;;;;;;;;;;;;5019912;28;19992;-82
2023/02/08 06:51:02;;;;;;;;;;;;;;;;;;5022007;28;19929;-84
2023/02/08 06:53:28;;;;;;;;;;;;;;;;;;5009560;28;20067;-82
2023/02/08 06:56:04;;;;;;;;;;;;;;;;;;;;;
2023/02/08 06:58:36;;;;;;;;;;;;;;;;;;5009321;28;19933;-82
2023/02/08 07:01:02;;;;;;;;;;;;;;;;;;5017888;28;20001;-81
2023/02/08 07:04:01;;;;;;;;;;;;;;;;;;4988608;28;19944;-82
2023/02/08 07:06:36;;;;;;;;;;;;;;;;;;4997615;28;19924;-83
2023/02/08 07:09:03;;;;;;;;;;;;;;;;;;5008363;28;19921;-82
2023/02/08 07:11:29;;;;;;;;;;;;;;;;;;5011051;28;19959;-83
2023/02/08 07:13:55;;;;;;;;;;;;;;;;;;5009402;28;20389;-82
2023/02/08 07:22:29;;;;;;;;;;;;;;;;;;4996594;28;20286;-83
2023/02/08 07:25:06;;;;;;;;;;;;;;;;;;4984046;28;19924;-82
2023/02/08 07:27:42;;;;;;;;;;;;;;;;;;5000405;23;20180;-83
2023/02/08 07:30:14;;;;;;;;;;;;;;;;;;5005329;28;19948;-82
2023/02/08 07:32:50;;;;;;;;;;;;;;;;;;5013618;28;19921;-82
2023/02/08 07:35:28;;;;;;;;;;;;;;;;;;5008900;28;19917;-83
2023/02/08 07:40:49;;;;;;;;;;;;;;;;;;5008916;22;20300;-77
2023/02/08 07:43:15;;;;;;;;;;;;;;;;;;4960868;28;19917;-77
2023/02/08 07:45:41;;;;;;;;;;;;;;;;;;4954776;28;20242;-77
2023/02/08 07:48:07;;;;;;;;;;;;;;;;;;4987173;28;19933;-77
2023/02/08 07:50:33;;;;;;;;;;;;;;;;;;4967064;28;19927;-77
2023/02/08 07:52:58;;;;;;;;;;;;;;;;;;4954436;28;20017;-77
2023/02/08 07:55:24;;;;;;;;;;;;;;;;;;4973354;28;19964;-77
2023/02/08 07:57:50;;;;;;;;;;;;;;;;;;4943586;28;20503;-77
2023/02/08 08:00:16;;;;;;;;;;;;;;;;;;4974168;28;20355;-77
2023/02/08 08:02:42;;;;;;;;;;;;;;;;;;4969624;28;20293;-78
2023/02/08 08:05:08;;;;;;;;;;;;;;;;;;4972619;28;19917;-77
2023/02/08 08:07:34;;;;;;;;;;;;;;;;;;4964254;28;20407;-76
2023/02/08 08:10:00;;;;;;;;;;;;;;;;;;4974786;28;20024;-77
2023/02/08 08:12:26;;;;;;;;;;;;;;;;;;4948643;28;20016;-77
2023/02/08 08:14:52;;;;;;;;;;;;;;;;;;4974622;28;19922;-76
2023/02/08 08:17:18;;;;;;;;;;;;;;;;;;4975087;28;19948;-77
2023/02/08 08:19:43;;;;;;;;;;;;;;;;;;4973271;28;19922;-77
2023/02/08 08:22:09;;;;;;;;;;;;;;;;;;4972218;28;20353;-75
2023/02/08 08:24:36;;;;;;;;;;;;;;;;;;4972248;28;19925;-76
2023/02/08 08:27:01;;;;;;;;;;;;;;;;;;4973164;28;19918;-76
2023/02/08 08:29:27;;;;;;;;;;;;;;;;;;4968074;28;20288;-76
2023/02/08 08:31:53;;;;;;;;;;;;;;;;;;4967994;28;19921;-76
2023/02/08 08:34:19;;;;;;;;;;;;;;;;;;4960515;28;19972;-77
2023/02/08 08:36:45;;;;;;;;;;;;;;;;;;4958607;28;19972;-76
2023/02/08 08:39:11;;;;;;;;;;;;;;;;;;4968569;28;19928;-76
2023/02/08 08:41:37;;;;;;;;;;;;;;;;;;4975712;28;20004;-76
2023/02/08 08:44:03;;;;;;;;;;;;;;;;;;4956160;28;20020;-76
2023/02/08 08:46:29;;;;;;;;;;;;;;;;;;4947423;28;20407;-76
2023/02/08 08:48:55;;;;;;;;;;;;;;;;;;4948658;28;20426;-76
2023/02/08 08:51:20;;;;;;;;;;;;;;;;;;4971735;28;20008;-76
2023/02/08 08:53:46;;;;;;;;;;;;;;;;;;4946481;28;19925;-76
2023/02/08 08:56:12;;;;;;;;;;;;;;;;;;4951322;28;19918;-76
2023/02/08 08:58:38;;;;;;;;;;;;;;;;;;4972419;28;19921;-77
2023/02/08 09:01:04;;;;;;;;;;;;;;;;;;4966541;28;19924;-76
2023/02/08 09:03:30;;;;;;;;;;;;;;;;;;4974601;28;19917;-76
2023/02/08 09:05:56;;;;;;;;;;;;;;;;;;4957817;28;20311;-77
2023/02/08 09:08:22;;;;;;;;;;;;;;;;;;4972416;28;19964;-76
2023/02/08 09:10:48;;;;;;;;;;;;;;;;;;4965180;28;20650;-76
2023/02/08 09:13:18;;;;;;;;;;;;;;;;;;4972368;28;20467;-76
2023/02/08 09:15:44;;;;;;;;;;;;;;;;;;4964916;28;20565;-76
2023/02/08 09:18:10;;;;;;;;;;;;;;;;;;4952835;28;20299;-76
2023/02/08 09:20:36;;;;;;;;;;;;;;;;;;4973200;28;20354;-76
2023/02/08 09:23:01;;;;;;;;;;;;;;;;;;4960141;28;19918;-76
2023/02/08 09:25:27;;;;;;;;;;;;;;;;;;4965142;28;19917;-76
2023/02/08 09:27:53;;;;;;;;;;;;;;;;;;4975702;28;20153;-76
2023/02/08 09:30:19;;;;;;;;;;;;;;;;;;4970510;28;19922;-76
2023/02/08 09:32:45;;;;;;;;;;;;;;;;;;4962615;28;19961;-76
2023/02/08 09:35:12;;;;;;;;;;;;;;;;;;4967945;28;19917;-76
2023/02/08 09:37:38;;;;;;;;;;;;;;;;;;4952727;28;19930;-75
2023/02/08 09:40:04;;;;;;;;;;;;;;;;;;4942684;28;19929;-75
2023/02/08 09:42:29;;;;;;;;;;;;;;;;;;4947807;28;19995;-74
2023/02/08 09:44:55;;;;;;;;;;;;;;;;;;4952031;28;19952;-74
2023/02/08 09:47:21;;;;;;;;;;;;;;;;;;4974139;28;19976;-74
2023/02/08 09:49:47;;;;;;;;;;;;;;;;;;4951363;28;19933;-74
2023/02/08 09:52:13;;;;;;;;;;;;;;;;;;4961565;28;19929;-74
2023/02/08 09:54:39;;;;;;;;;;;;;;;;;;4974135;28;19917;-75
2023/02/08 09:57:06;;;;;;;;;;;;;;;;;;4968407;28;19976;-74
2023/02/08 09:59:31;;;;;;;;;;;;;;;;;;4968144;28;20380;-74
2023/02/08 10:01:57;;;;;;;;;;;;;;;;;;4970867;28;19965;-73
2023/02/08 10:04:23;;;;;;;;;;;;;;;;;;4956476;28;19964;-74
2023/02/08 10:06:49;;;;;;;;;;;;;;;;;;4943149;28;19961;-74
2023/02/08 10:09:15;;;;;;;;;;;;;;;;;;4969306;28;20012;-74
2023/02/08 10:11:42;;;;;;;;;;;;;;;;;;4950262;28;19929;-74
2023/02/08 10:14:08;;;;;;;;;;;;;;;;;;4950707;28;20059;-74
2023/02/08 10:16:34;;;;;;;;;;;;;;;;;;4964238;28;19961;-73
2023/02/08 10:18:59;;;;;;;;;;;;;;;;;;4971166;28;19921;-73
2023/02/08 10:21:25;;;;;;;;;;;;;;;;;;4956115;28;20277;-73
2023/02/08 10:23:51;;;;;;;;;;;;;;;;;;4946711;28;19926;-73
2023/02/08 10:26:17;;;;;;;;;;;;;;;;;;4959619;28;20307;-73
2023/02/08 10:28:43;;;;;;;;;;;;;;;;;;4969799;28;20477;-73
2023/02/08 10:31:09;;;;;;;;;;;;;;;;;;4965957;28;19937;-73
2023/02/08 10:33:35;;;;;;;;;;;;;;;;;;4969875;28;19940;-74
2023/02/08 10:36:01;;;;;;;;;;;;;;;;;;4946175;28;19925;-72
2023/02/08 10:38:27;;;;;;;;;;;;;;;;;;4962959;28;19917;-73
2023/02/08 10:40:54;;;;;;;;;;;;;;;;;;4967005;28;20062;-73
2023/02/08 10:43:20;;;;;;;;;;;;;;;;;;4970353;28;20006;-73
2023/02/08 10:45:46;;;;;;;;;;;;;;;;;;4969013;28;19968;-72
2023/02/08 10:48:12;;;;;;;;;;;;;;;;;;4965611;28;20009;-73
2023/02/08 10:50:38;;;;;;;;;;;;;;;;;;4967703;28;19928;-73
2023/02/08 10:53:04;;;;;;;;;;;;;;;;;;4965854;28;19922;-73
2023/02/08 10:55:29;;;;;;;;;;;;;;;;;;4966215;28;19961;-73
2023/02/08 10:57:55;;;;;;;;;;;;;;;;;;4969732;28;20011;-73
2023/02/08 11:00:22;;;;;;;;;;;;;;;;;;4957317;28;20075;-73
2023/02/08 11:02:48;;;;;;;;;;;;;;;;;;4945409;28;19925;-73
2023/02/08 11:05:14;;;;;;;;;;;;;;;;;;4968327;28;19959;-73
2023/02/08 11:07:40;;;;;;;;;;;;;;;;;;4962247;28;19964;-73
2023/02/08 11:10:06;;;;;;;;;;;;;;;;;;4971025;28;20132;-73
2023/02/08 11:12:32;;;;;;;;;;;;;;;;;;4961637;28;19930;-73
2023/02/08 11:14:58;;;;;;;;;;;;;;;;;;4965179;28;20009;-72
2023/02/08 11:17:24;;;;;;;;;;;;;;;;;;4970589;28;19940;-73
2023/02/08 11:19:50;;;;;;;;;;;;;;;;;;4964830;28;21274;-73
2023/02/08 11:22:16;;;;;;;;;;;;;;;;;;4947562;28;20413;-74
2023/02/08 11:24:42;;;;;;;;;;;;;;;;;;4971036;28;19971;-73
2023/02/08 11:27:08;;;;;;;;;;;;;;;;;;4959874;28;20178;-73
2023/02/08 11:29:34;;;;;;;;;;;;;;;;;;4943853;28;19926;-72
2023/02/08 11:32:00;;;;;;;;;;;;;;;;;;4963872;28;19922;-73
2023/02/08 11:34:26;;;;;;;;;;;;;;;;;;4965396;28;20384;-72
2023/02/08 11:36:51;;;;;;;;;;;;;;;;;;4945011;28;20226;-73
2023/02/08 11:39:17;;;;;;;;;;;;;;;;;;4972313;28;20007;-73
2023/02/08 11:41:43;;;;;;;;;;;;;;;;;;4966983;28;20441;-72
2023/02/08 11:44:09;;;;;;;;;;;;;;;;;;4952219;28;19921;-73
2023/02/08 11:46:35;;;;;;;;;;;;;;;;;;4971753;28;19937;-72
2023/02/08 11:49:02;;;;;;;;;;;;;;;;;;4968976;28;19921;-73
2023/02/08 11:51:28;;;;;;;;;;;;;;;;;;4971357;28;19918;-73
2023/02/08 11:53:54;;;;;;;;;;;;;;;;;;4957124;28;19926;-73
2023/02/08 11:56:20;;;;;;;;;;;;;;;;;;4947206;28;19941;-72
2023/02/08 11:58:46;;;;;;;;;;;;;;;;;;4968057;28;19968;-72
2023/02/08 12:01:12;;;;;;;;;;;;;;;;;;4969439;28;20415;-73
2023/02/08 12:03:38;;;;;;;;;;;;;;;;;;4972368;28;19949;-72
2023/02/08 12:06:03;;;;;;;;;;;;;;;;;;4966069;28;19965;-72
2023/02/08 12:08:29;;;;;;;;;;;;;;;;;;4975963;28;19917;-73
2023/02/08 12:10:55;;;;;;;;;;;;;;;;;;4948098;28;19918;-72
2023/02/08 12:13:21;;;;;;;;;;;;;;;;;;4964703;28;19925;-73
2023/02/08 12:15:47;;;;;;;;;;;;;;;;;;4971906;28;20012;-73
2023/02/08 12:18:13;;;;;;;;;;;;;;;;;;4969968;28;19926;-73
2023/02/08 12:20:39;;;;;;;;;;;;;;;;;;4970818;28;19943;-73
2023/02/08 12:23:05;;;;;;;;;;;;;;;;;;4965628;28;19977;-73
2023/02/08 12:25:31;;;;;;;;;;;;;;;;;;4973618;28;19917;-73
2023/02/08 12:27:57;;;;;;;;;;;;;;;;;;4973530;28;19921;-71
2023/02/08 12:30:23;;;;;;;;;;;;;;;;;;4971509;28;19950;-73
2023/02/08 12:32:49;;;;;;;;;;;;;;;;;;4949880;28;19930;-73
2023/02/08 12:35:15;;;;;;;;;;;;;;;;;;4957666;28;19917;-73
2023/02/08 12:43:12;;;;;;;;;;;;;;;;;;4973298;28;19925;-75
2023/02/08 12:45:38;;;;;;;;;;;;;;;;;;4968946;28;19926;-73
2023/02/08 12:48:04;;;;;;;;;;;;;;;;;;4960999;28;20435;-73
2023/02/08 12:50:30;;;;;;;;;;;;;;;;;;4976457;28;19929;-72
2023/02/08 12:52:56;;;;;;;;;;;;;;;;;;4970266;28;20419;-73
2023/02/08 12:55:22;;;;;;;;;;;;;;;;;;4951138;28;19918;-73
2023/02/08 12:57:48;;;;;;;;;;;;;;;;;;4970350;28;19917;-72
2023/02/08 13:00:14;;;;;;;;;;;;;;;;;;4955327;28;19928;-72
2023/02/08 13:02:43;;;;;;;;;;;;;;;;;;4969002;28;19918;-72
2023/02/08 13:05:09;;;;;;;;;;;;;;;;;;4973282;28;19932;-74
2023/02/08 13:07:35;;;;;;;;;;;;;;;;;;4972445;28;19917;-73
2023/02/08 13:10:01;;;;;;;;;;;;;;;;;;4950085;28;20372;-73
2023/02/08 13:12:27;;;;;;;;;;;;;;;;;;4975612;28;19917;-72
2023/02/08 13:14:53;;;;;;;;;;;;;;;;;;4970965;28;20535;-73
2023/02/08 13:17:19;;;;;;;;;;;;;;;;;;4970161;28;20403;-73
2023/02/08 13:19:45;;;;;;;;;;;;;;;;;;4967560;28;19961;-73
2023/02/08 13:22:11;;;;;;;;;;;;;;;;;;4957530;28;19956;-73
2023/02/08 13:24:37;;;;;;;;;;;;;;;;;;4965743;28;20441;-72
2023/02/08 13:27:05;;;;;;;;;;;;;;;;;;4943934;28;19931;-74
2023/02/08 13:29:32;;;;;;;;;;;;;;;;;;4940342;28;19980;-73
2023/02/08 13:31:58;;;;;;;;;;;;;;;;;;4940549;28;19933;-72
2023/02/08 13:34:24;;;;;;;;;;;;;;;;;;4959218;28;19921;-70
2023/02/08 13:36:58;;;;;;;;;;;;;;;;;;4947885;28;20013;-74
2023/02/08 13:39:24;;;;;;;;;;;;;;;;;;4970702;28;20013;-73
2023/02/08 13:41:50;;;;;;;;;;;;;;;;;;4991171;23;20017;-87
2023/02/08 13:44:16;;;;;;;;;;;;;;;;;;4944198;28;19926;-84
2023/02/08 13:46:42;;;;;;;;;;;;;;;;;;4946896;28;20502;-82
2023/02/08 13:49:08;;;;;;;;;;;;;;;;;;4945841;28;20007;-84
2023/02/08 13:51:34;;;;;;;;;;;;;;;;;;4941926;28;19929;-83
2023/02/08 13:54:02;;;;;;;;;;;;;;;;;;4962927;28;20400;-83
2023/02/08 13:56:30;;;;;;;;;;;;;;;;;;4961074;28;19917;-82
2023/02/08 13:59:00;;;;;;;;;;;;;;;;;;4961994;28;21207;-81
2023/02/08 14:01:27;;;;;;;;;;;;;;;;;;4958509;28;19987;-82
2023/02/08 14:03:53;;;;;;;;;;;;;;;;;;4941517;28;19928;-85
2023/02/08 14:06:19;;;;;;;;;;;;;;;;;;4960671;28;19921;-83
2023/02/08 14:08:45;;;;;;;;;;;;;;;;;;4950996;28;19921;-81
2023/02/08 14:11:11;;;;;;;;;;;;;;;;;;4960018;28;20055;-81
2023/02/08 14:13:39;;;;;;;;;;;;;;;;;;4941451;28;19964;-80
2023/02/08 14:16:05;;;;;;;;;;;;;;;;;;4961353;28;19917;-82
2023/02/08 14:18:31;;;;;;;;;;;;;;;;;;4958279;28;19931;-80
2023/02/08 14:20:57;;;;;;;;;;;;;;;;;;4957362;28;19918;-80
2023/02/08 14:23:29;;;;;;;;;;;;;;;;;;5097384;27;2004436;-82
2023/02/08 14:25:55;;;;;;;;;;;;;;;;;;5126158;27;20167;-81
2023/02/08 14:28:21;;;;;;;;;;;;;;;;;;5110140;27;20432;-81
2023/02/08 14:30:48;;;;;;;;;;;;;;;;;;5140808;27;21473;-81
2023/02/08 14:33:15;;;;;;;;;;;;;;;;;;5132336;27;19919;-82
2023/02/08 14:35:41;;;;;;;;;;;;;;;;;;5140121;27;19923;-81
2023/02/08 14:38:07;;;;;;;;;;;;;;;;;;5139405;27;19923;-83
2023/02/08 14:40:33;;;;;;;;;;;;;;;;;;5129381;27;20543;-82
2023/02/08 14:43:03;;;;;;;;;;;;;;;;;;5138007;27;19931;-84
2023/02/08 14:45:29;;;;;;;;;;;;;;;;;;5122818;27;19926;-81
2023/02/08 14:47:55;;;;;;;;;;;;;;;;;;5140110;27;20266;-82
2023/02/08 14:50:21;;;;;;;;;;;;;;;;;;5114516;27;20038;-82
2023/02/08 14:52:47;;;;;;;;;;;;;;;;;;5121705;27;20286;-83
2023/02/08 14:55:13;;;;;;;;;;;;;;;;;;5126077;27;19992;-82
2023/02/08 14:57:39;;;;;;;;;;;;;;;;;;5145072;27;20331;-81
2023/02/08 15:00:04;;;;;;;;;;;;;;;;;;5120588;27;19919;-82
2023/02/08 15:02:36;;;;;;;;;;;;;;;;;;5215596;22;20012;-82
2023/02/08 15:05:02;;;;;;;;;;;;;;;;;;5032757;28;20012;-83
2023/02/08 15:07:28;;;;;;;;;;;;;;;;;;5030145;28;19929;-83
2023/02/08 15:09:54;;;;;;;;;;;;;;;;;;5033926;28;19935;-82
2023/02/08 15:12:20;;;;;;;;;;;;;;;;;;5036379;28;19986;-82
2023/02/08 15:14:46;;;;;;;;;;;;;;;;;;5022644;28;19976;-82
2023/02/08 15:17:15;;;;;;;;;;;;;;;;;;5042027;22;19968;-76
2023/02/08 15:19:44;;;;;;;;;;;;;;;;;;5042541;28;19990;-76
2023/02/08 15:22:10;;;;;;;;;;;;;;;;;;5031521;28;19932;-75
2023/02/08 15:24:36;;;;;;;;;;;;;;;;;;5048551;28;20515;-75
2023/02/08 15:27:03;;;;;;;;;;;;;;;;;;5045352;28;19946;-75
2023/02/08 15:29:29;;;;;;;;;;;;;;;;;;5037041;28;19926;-75
2023/02/08 15:31:55;;;;;;;;;;;;;;;;;;5043996;28;19920;-75
2023/02/08 15:34:20;;;;;;;;;;;;;;;;;;5036095;28;20670;-75
2023/02/08 15:36:46;;;;;;;;;;;;;;;;;;5031115;28;19924;-76
2023/02/08 15:39:12;;;;;;;;;;;;;;;;;;5036047;28;19939;-75
2023/02/08 15:41:38;;;;;;;;;;;;;;;;;;5017128;28;20207;-75
2023/02/08 15:44:04;;;;;;;;;;;;;;;;;;5030031;28;20679;-75
2023/02/08 15:46:30;;;;;;;;;;;;;;;;;;5030772;28;19935;-75
2023/02/08 15:48:56;;;;;;;;;;;;;;;;;;5052568;28;19935;-75
2023/02/08 15:51:23;;;;;;;;;;;;;;;;;;5028922;28;19924;-75
2023/02/08 15:53:49;;;;;;;;;;;;;;;;;;5028159;28;19929;-75
2023/02/08 15:56:14;;;;;;;;;;;;;;;;;;5030923;28;19963;-75
2023/02/08 15:58:40;;;;;;;;;;;;;;;;;;5027736;28;20379;-75
2023/02/08 16:01:06;;;;;;;;;;;;;;;;;;5027288;28;20021;-75
2023/02/08 16:03:33;;;;;;;;;;;;;;;;;;5011842;28;19921;-75
2023/02/08 16:05:59;;;;;;;;;;;;;;;;;;5026005;28;19981;-75
2023/02/08 16:08:25;;;;;;;;;;;;;;;;;;5016113;28;19927;-75
2023/02/08 16:10:51;;;;;;;;;;;;;;;;;;5020616;28;20246;-75
2023/02/08 16:13:17;;;;;;;;;;;;;;;;;;5022282;28;19928;-75
2023/02/08 16:15:43;;;;;;;;;;;;;;;;;;5016493;28;19928;-75
2023/02/08 16:18:09;;;;;;;;;;;;;;;;;;5031390;28;19950;-74
2023/02/08 16:20:36;;;;;;;;;;;;;;;;;;5014254;28;19924;-75
2023/02/08 16:23:01;;;;;;;;;;;;;;;;;;5025514;28;20505;-75
2023/02/08 16:25:27;;;;;;;;;;;;;;;;;;5026069;28;20343;-75
2023/02/08 16:27:53;;;;;;;;;;;;;;;;;;5029452;28;20383;-76
2023/02/08 16:30:19;;;;;;;;;;;;;;;;;;5027796;28;19974;-75
2023/02/08 16:32:45;;;;;;;;;;;;;;;;;;5020759;28;20002;-75
2023/02/08 16:35:11;;;;;;;;;;;;;;;;;;5027640;28;19928;-75
2023/02/08 16:37:37;;;;;;;;;;;;;;;;;;5017431;28;20372;-75
2023/02/08 16:40:03;;;;;;;;;;;;;;;;;;5032851;28;20069;-75
2023/02/08 16:42:29;;;;;;;;;;;;;;;;;;5016623;28;19940;-75
2023/02/08 16:44:55;;;;;;;;;;;;;;;;;;5024164;28;19920;-75
2023/02/08 16:47:21;;;;;;;;;;;;;;;;;;5020219;28;19929;-75
2023/02/08 16:49:47;;;;;;;;;;;;;;;;;;5031271;28;19928;-75
2023/02/08 16:52:12;;;;;;;;;;;;;;;;;;5028166;28;19928;-75
2023/02/08 16:54:38;;;;;;;;;;;;;;;;;;5035647;28;20627;-76